Time;durP1;ratioP1;P1;durP2;ratioP2;P2;SDS_P1;SDS_P2;PMS_P1;PMS_P2;Temp;Humidity;BMP_temperature;BMP_pressure;BME280_temperature;BME280_humidity;BME280_pressure;Samples;Min_cycle;Max_cycle;Signal;HPM_P1;HPM_P2
2020/12/26 00:00:08;;;;;;;12.18;5.63;;;-0.60;1.00;;;;;;5093128;28;20179;-79
2020/12/26 00:02:34;;;;;;;13.07;6.40;;;-0.60;1.00;;;;;;5092810;28;20188;-77
2020/12/26 00:05:03;;;;;;;10.83;6.60;;;-0.70;1.00;;;;;;5089421;28;20259;-77
2020/12/26 00:07:33;;;;;;;11.93;6.80;;;-0.70;1.00;;;;;;5093591;28;20241;-75
2020/12/26 00:09:58;;;;;;;13.00;5.90;;;-0.70;1.00;;;;;;5079721;28;20554;-75
2020/12/26 00:12:50;;;;;;;20.30;6.93;;;-0.70;1.00;;;;;;5073661;28;20163;-75
2020/12/26 00:15:16;;;;;;;14.30;6.80;;;-0.70;1.00;;;;;;5083184;28;20178;-75
2020/12/26 00:17:50;;;;;;;14.67;7.17;;;-0.70;1.00;;;;;;5094131;28;20154;-78
2020/12/26 00:20:38;;;;;;;18.38;7.85;;;-0.70;1.00;;;;;;5093593;28;20988;-78
2020/12/26 00:23:44;;;;;;;16.48;6.25;;;-0.70;1.00;;;;;;5090863;28;20299;-78
2020/12/26 00:26:16;;;;;;;13.68;6.50;;;-0.70;1.00;;;;;;5093337;28;20154;-78
2020/12/26 00:29:26;;;;;;;11.85;6.40;;;-0.60;1.00;;;;;;5075633;28;20744;-78
2020/12/26 00:32:14;;;;;;;9.70;6.22;;;-0.50;1.00;;;;;;5073435;28;20159;-79
2020/12/26 00:34:57;;;;;;;10.10;6.30;;;-0.50;1.00;;;;;;5082566;28;20331;-78
2020/12/26 00:38:02;;;;;;;10.48;6.55;;;-0.40;1.00;;;;;;5094034;28;20181;-78
2020/12/26 00:41:02;;;;;;;13.50;6.25;;;-0.40;1.00;;;;;;5093726;28;20228;-78
2020/12/26 00:43:39;;;;;;;17.48;7.72;;;-0.20;1.00;;;;;;5077409;28;20179;-78
2020/12/26 00:46:56;;;;;;;10.80;6.10;;;-0.10;1.00;;;;;;5073455;28;20159;-78
2020/12/26 00:49:27;;;;;;;12.77;6.35;;;-0.10;1.00;;;;;;5073658;28;20255;-79
2020/12/26 00:51:57;;;;;;;13.32;7.18;;;0.00;1.00;;;;;;5074330;28;20242;-78
2020/12/26 00:54:26;;;;;;;14.90;7.22;;;0.00;1.00;;;;;;5093564;28;20163;-78
2020/12/26 00:56:57;;;;;;;12.10;6.57;;;0.10;1.00;;;;;;5090716;28;20174;-78
2020/12/26 00:59:27;;;;;;;18.63;6.85;;;0.10;1.00;;;;;;5073259;28;20185;-78
2020/12/26 01:02:32;;;;;;;18.60;5.80;;;0.10;1.00;;;;;;5073269;28;20696;-79
2020/12/26 01:05:04;;;;;;;11.13;5.80;;;0.20;1.00;;;;;;5072941;28;20166;-75
2020/12/26 01:07:30;;;;;;;15.68;5.88;;;0.20;1.00;;;;;;5084151;28;20171;-75
2020/12/26 01:09:57;;;;;;;14.70;6.10;;;0.20;1.00;;;;;;5093568;28;20165;-75
2020/12/26 01:12:26;;;;;;;11.45;6.43;;;0.10;1.00;;;;;;5088402;28;20225;-75
2020/12/26 01:15:04;;;;;;;11.10;6.30;;;0.20;1.00;;;;;;5073175;28;20622;-75
2020/12/26 01:17:32;;;;;;;13.93;7.00;;;0.10;1.00;;;;;;5073013;28;20178;-75
2020/12/26 01:20:09;;;;;;;9.90;6.38;;;0.10;1.00;;;;;;5073211;28;20193;-75
2020/12/26 01:22:35;;;;;;;13.50;6.65;;;0.00;1.00;;;;;;5072242;28;20204;-75
2020/12/26 01:25:03;;;;;;;13.67;6.47;;;0.00;1.00;;;;;;5073165;28;20634;-75
2020/12/26 01:27:28;;;;;;;18.38;7.45;;;-0.10;1.00;;;;;;5073057;28;20390;-75
2020/12/26 01:29:54;;;;;;;10.20;6.20;;;;;;;;;;5073059;28;20171;-75
2020/12/26 01:32:33;;;;;;;13.65;6.65;;;-0.20;1.00;;;;;;5072962;28;20167;-75
2020/12/26 01:35:03;;;;;;;15.23;6.88;;;-0.20;1.00;;;;;;5073119;28;20274;-79
2020/12/26 01:38:02;;;;;;;19.55;8.25;;;-0.20;1.00;;;;;;5071519;28;20229;-79
2020/12/26 01:40:33;;;;;;;15.45;6.63;;;-0.20;1.00;;;;;;5072859;28;20205;-79
2020/12/26 01:42:58;;;;;;;15.20;6.95;;;-0.30;1.00;;;;;;5072907;28;20168;-79
2020/12/26 01:45:45;;;;;;;10.27;6.30;;;-0.30;1.00;;;;;;5076561;28;20159;-78
2020/12/26 01:48:16;;;;;;;12.27;6.47;;;-0.40;1.00;;;;;;5093109;28;20194;-77
2020/12/26 01:50:45;;;;;;;14.40;7.60;;;-0.40;1.00;;;;;;5092936;28;20641;-78
2020/12/26 01:53:17;;;;;;;12.60;6.20;;;-0.50;1.00;;;;;;5073645;28;20185;-78
2020/12/26 01:55:44;;;;;;;11.02;6.95;;;-0.50;1.00;;;;;;5072930;28;20225;-78
2020/12/26 02:02:07;;;;;;;15.48;7.28;;;-0.60;1.00;;;;;;5072456;28;20210;-78
2020/12/26 02:04:32;;;;;;;14.27;7.05;;;-0.60;1.00;;;;;;5072948;28;20168;-76
2020/12/26 02:07:05;;;;;;;20.07;7.67;;;-0.70;1.00;;;;;;5077601;28;20163;-76
2020/12/26 02:09:31;;;;;;;13.20;7.43;;;-0.60;1.00;;;;;;5091848;28;20158;-76
2020/12/26 02:11:57;;;;;;;18.63;7.63;;;-0.70;1.00;;;;;;5092875;28;20552;-75
2020/12/26 02:14:23;;;;;;;17.73;6.97;;;;;;;;;;5091968;28;20235;-75
2020/12/26 02:16:52;;;;;;;13.25;6.60;;;-0.60;1.00;;;;;;5081465;28;20182;-75
2020/12/26 02:19:23;;;;;;;15.23;7.90;;;-0.60;1.00;;;;;;5076211;28;20202;-76
2020/12/26 02:21:51;;;;;;;14.32;7.35;;;;;;;;;;5079151;28;20653;-75
2020/12/26 02:24:18;;;;;;;16.13;7.22;;;;;;;;;;5076363;28;20212;-75
2020/12/26 02:26:57;;;;;;;21.58;7.55;;;-0.50;1.00;;;;;;5076389;28;20155;-75
2020/12/26 02:29:33;;;;;;;15.10;6.75;;;-0.50;1.00;;;;;;5076224;28;20185;-75
2020/12/26 02:31:58;;;;;;;15.10;7.60;;;-0.40;1.00;;;;;;5076001;28;20155;-75
2020/12/26 02:34:27;;;;;;;17.23;7.30;;;-0.40;1.00;;;;;;5076249;28;20633;-79
2020/12/26 02:36:57;;;;;;;12.88;7.38;;;-0.40;1.00;;;;;;5075648;28;20179;-79
2020/12/26 02:39:27;;;;;;;12.88;7.18;;;-0.30;1.00;;;;;;5075836;28;20171;-79
2020/12/26 02:41:57;;;;;;;14.75;7.30;;;-0.30;1.00;;;;;;5083229;28;20548;-79
2020/12/26 02:44:33;;;;;;;12.90;7.10;;;-0.30;1.00;;;;;;5075698;28;20168;-79
2020/12/26 02:46:58;;;;;;;13.55;7.50;;;-0.20;1.00;;;;;;5079828;28;20178;-78
2020/12/26 02:49:24;;;;;;;16.97;8.03;;;-0.20;1.00;;;;;;5094737;28;20208;-75
2020/12/26 02:51:51;;;;;;;13.13;7.03;;;-0.10;1.00;;;;;;5079335;28;20668;-75
2020/12/26 02:54:16;;;;;;;14.93;7.65;;;0.00;1.00;;;;;;5075419;28;20630;-76
2020/12/26 02:56:45;;;;;;;17.70;7.47;;;0.00;1.00;;;;;;5075555;28;20171;-75
2020/12/26 02:59:27;;;;;;;18.20;8.50;;;0.10;1.00;;;;;;5075557;28;20160;-76
2020/12/26 03:01:57;;;;;;;13.75;6.95;;;0.10;1.00;;;;;;5084115;28;20214;-75
2020/12/26 03:04:33;;;;;;;18.33;7.53;;;0.20;1.00;;;;;;5095537;28;20184;-75
2020/12/26 03:06:58;;;;;;;16.08;7.20;;;0.30;1.00;;;;;;5094912;28;20151;-75
2020/12/26 03:09:33;;;;;;;20.13;7.23;;;0.40;1.00;;;;;;5093255;28;20173;-76
2020/12/26 03:11:58;;;;;;;18.45;7.35;;;0.40;1.00;;;;;;5093385;28;20166;-75
2020/12/26 03:14:24;;;;;;;14.17;7.83;;;;;;;;;;5095110;28;20215;-75
2020/12/26 03:16:50;;;;;;;11.10;6.50;;;0.50;1.00;;;;;;5075276;28;20242;-75
2020/12/26 03:19:16;;;;;;;13.60;6.90;;;;;;;;;;5075229;28;20906;-76
2020/12/26 03:21:41;;;;;;;22.52;6.10;;;0.60;1.00;;;;;;5074364;28;20764;-75
2020/12/26 03:24:07;;;;;;;15.50;7.50;;;0.70;1.00;;;;;;5074639;28;20184;-76
2020/12/26 03:26:39;;;;;;;6.40;3.50;;;0.70;1.00;;;;;;5073906;28;20155;-76
2020/12/26 03:29:09;;;;;;;9.68;5.53;;;0.80;1.00;;;;;;5074942;28;20175;-75
2020/12/26 03:31:51;;;;;;;9.38;4.28;;;0.90;1.00;;;;;;5074860;28;20175;-76
2020/12/26 03:34:27;;;;;;;18.85;6.25;;;0.90;1.00;;;;;;5092051;28;20182;-78
2020/12/26 03:40:15;;;;;;;11.60;5.03;;;0.90;1.00;;;;;;5074558;28;20703;-79
2020/12/26 03:43:32;;;;;;;5.35;3.47;;;1.00;1.00;;;;;;5075542;28;20234;-79
2020/12/26 03:45:59;;;;;;;16.25;6.55;;;;;;;;;;5074168;28;20194;-79
2020/12/26 03:48:24;;;;;;;11.82;4.20;;;1.00;1.00;;;;;;5074206;28;20269;-79
2020/12/26 03:50:51;;;;;;;8.33;3.73;;;1.00;1.00;;;;;;5074464;28;20222;-75
2020/12/26 03:53:33;;;;;;;7.03;4.47;;;1.10;1.00;;;;;;5074169;28;20254;-75
2020/12/26 03:56:03;;;;;;;6.72;3.67;;;1.10;1.00;;;;;;5074438;28;20159;-76
2020/12/26 04:02:20;;;;;;;7.13;3.88;;;1.30;1.00;;;;;;5074019;28;20213;-79
2020/12/26 04:05:03;;;;;;;7.82;4.07;;;1.20;1.00;;;;;;5072731;28;20587;-79
2020/12/26 04:07:28;;;;;;;11.30;4.68;;;1.30;1.00;;;;;;5084642;28;20166;-79
2020/12/26 04:10:09;;;;;;;11.73;5.50;;;1.30;1.00;;;;;;5094229;28;20160;-79
2020/12/26 04:12:45;;;;;;;11.20;4.50;;;1.40;1.00;;;;;;5074732;28;20178;-79
2020/12/26 04:15:32;;;;;;;10.65;4.60;;;1.40;1.00;;;;;;5085740;28;20629;-79
2020/12/26 04:18:32;;;;;;;6.55;3.78;;;1.50;1.00;;;;;;5094213;28;20159;-79
2020/12/26 04:21:09;;;;;;;10.30;4.50;;;1.50;1.00;;;;;;5092791;28;20206;-75
2020/12/26 04:23:35;;;;;;;11.40;3.92;;;1.50;1.00;;;;;;5093407;28;20208;-76
2020/12/26 04:26:07;;;;;;;6.00;3.63;;;1.60;1.00;;;;;;5073858;28;20186;-75
2020/12/26 04:28:45;;;;;;;5.55;3.63;;;1.60;1.00;;;;;;5073946;28;20190;-75
2020/12/26 04:31:21;;;;;;;5.50;3.55;;;1.60;1.00;;;;;;5073668;28;20224;-75
2020/12/26 04:33:51;;;;;;;6.10;3.53;;;1.70;1.00;;;;;;5072443;28;20561;-75
2020/12/26 04:36:33;;;;;;;9.00;3.50;;;1.70;1.00;;;;;;5084274;28;20577;-80
2020/12/26 04:39:26;;;;;;;14.30;4.10;;;1.70;1.00;;;;;;5089117;28;20187;-80
2020/12/26 04:42:04;;;;;;;6.13;3.13;;;1.70;1.00;;;;;;5079029;28;20232;-80
2020/12/26 04:44:34;;;;;;;9.10;4.88;;;1.80;1.00;;;;;;5092955;28;20195;-80
2020/12/26 04:47:07;;;;;;;9.35;4.97;;;1.80;1.00;;;;;;5093859;28;20236;-80
2020/12/26 04:49:34;;;;;;;7.38;3.55;;;1.80;1.00;;;;;;5085121;28;20294;-81
2020/12/26 04:52:04;;;;;;;4.88;3.03;;;1.80;1.00;;;;;;5073178;28;20166;-80
2020/12/26 04:55:03;;;;;;;7.60;3.60;;;1.80;1.00;;;;;;5073658;28;20605;-80
2020/12/26 04:57:35;;;;;;;5.78;3.72;;;1.80;1.00;;;;;;5073416;28;20159;-80
2020/12/26 05:00:04;;;;;;;10.20;3.78;;;1.80;1.00;;;;;;5073638;28;20171;-80
2020/12/26 05:02:40;;;;;;;5.72;3.90;;;1.80;1.00;;;;;;5073311;28;20159;-80
2020/12/26 05:05:50;;;;;;;12.10;4.20;;;1.90;1.00;;;;;;5073448;28;20234;-80
2020/12/26 05:09:02;;;;;;;14.88;4.88;;;2.00;1.00;;;;;;5086948;28;20166;-80
2020/12/26 05:12:03;;;;;;;5.38;3.20;;;2.00;1.00;;;;;;5093593;28;20157;-80
2020/12/26 05:14:33;;;;;;;7.28;4.38;;;2.00;1.00;;;;;;5093484;28;20166;-80
2020/12/26 05:17:32;;;;;;;5.60;3.05;;;2.00;1.00;;;;;;5093499;28;20204;-80
2020/12/26 05:20:50;;;;;;;6.85;4.22;;;1.90;1.00;;;;;;5093161;28;20171;-80
2020/12/26 05:23:18;;;;;;;8.60;2.83;;;2.00;1.00;;;;;;5093213;28;20510;-80
2020/12/26 05:25:57;;;;;;;4.60;3.22;;;2.00;1.00;;;;;;5091147;28;20193;-79
2020/12/26 05:29:02;;;;;;;6.65;3.75;;;2.00;1.00;;;;;;5073875;28;20521;-79
2020/12/26 05:34:51;;;;;;;7.15;4.25;;;2.10;1.00;;;;;;5072875;28;20231;-79
2020/12/26 05:37:35;;;;;;;9.43;4.82;;;2.10;1.00;;;;;;5073612;28;20183;-79
2020/12/26 05:40:32;;;;;;;7.85;4.38;;;2.10;1.00;;;;;;5072737;28;20164;-79
2020/12/26 05:43:32;;;;;;;16.08;4.88;;;2.10;1.00;;;;;;5078960;28;20177;-79
2020/12/26 05:46:03;;;;;;;8.98;4.00;;;2.10;1.00;;;;;;5093157;28;20166;-79
2020/12/26 05:48:39;;;;;;;5.07;3.60;;;2.10;1.00;;;;;;5089752;28;20499;-79
2020/12/26 05:51:33;;;;;;;8.48;3.25;;;2.10;1.00;;;;;;5096587;28;20189;-79
2020/12/26 05:54:32;;;;;;;6.28;3.33;;;2.20;1.00;;;;;;5087226;28;20651;-79
2020/12/26 05:57:33;;;;;;;7.47;4.22;;;2.10;1.00;;;;;;5076796;28;20227;-79
2020/12/26 06:00:03;;;;;;;4.07;3.40;;;2.10;1.00;;;;;;5075401;28;20236;-80
2020/12/26 06:02:29;;;;;;;7.00;3.05;;;2.10;1.00;;;;;;5076552;28;20155;-79
2020/12/26 06:05:28;;;;;;;4.22;2.90;;;2.10;1.00;;;;;;5076139;28;20648;-79
2020/12/26 06:07:57;;;;;;;10.48;2.80;;;2.10;1.00;;;;;;5079976;28;20215;-75
2020/12/26 06:10:27;;;;;;;8.95;4.50;;;2.10;1.00;;;;;;5097124;28;20228;-76
2020/12/26 06:12:57;;;;;;;16.63;4.43;;;2.10;1.00;;;;;;5096418;28;20656;-75
2020/12/26 06:15:27;;;;;;;6.18;3.78;;;2.10;1.00;;;;;;5096715;28;20245;-75
2020/12/26 06:17:55;;;;;;;5.60;3.25;;;2.10;1.00;;;;;;5092574;28;20702;-76
2020/12/26 06:20:33;;;;;;;6.03;3.55;;;2.10;1.00;;;;;;5076494;28;20672;-75
2020/12/26 06:23:03;;;;;;;7.82;3.92;;;2.10;1.00;;;;;;5088760;28;20171;-75
2020/12/26 06:25:52;;;;;;;6.30;4.00;;;2.10;1.00;;;;;;5076339;28;20159;-75
2020/12/26 06:28:29;;;;;;;6.55;3.92;;;2.20;1.00;;;;;;5076286;28;20173;-75
2020/12/26 06:31:07;;;;;;;10.82;3.72;;;2.20;1.00;;;;;;5076129;28;20178;-75
2020/12/26 06:33:48;;;;;;;5.88;4.13;;;2.20;1.00;;;;;;5076428;28;20703;-75
2020/12/26 06:36:15;;;;;;;4.38;3.08;;;2.20;1.00;;;;;;5076904;28;20480;-77
2020/12/26 06:38:41;;;;;;;18.90;4.30;;;2.20;1.00;;;;;;5076989;28;20511;-75
2020/12/26 06:41:15;;;;;;;8.45;4.53;;;2.20;1.00;;;;;;5076079;28;20195;-75
2020/12/26 06:44:11;;;;;;;9.40;3.63;;;2.20;1.00;;;;;;5075845;28;20281;-75
2020/12/26 06:46:45;;;;;;;7.22;4.20;;;2.20;1.00;;;;;;5014139;28;20196;-75
2020/12/26 06:49:23;;;;;;;7.32;3.53;;;2.10;1.00;;;;;;5017446;28;20180;-75
2020/12/26 06:51:51;;;;;;;5.85;3.88;;;2.10;1.00;;;;;;5026549;28;20624;-75
2020/12/26 06:54:47;;;;;;;14.27;4.30;;;2.10;1.00;;;;;;5033679;28;20195;-75
2020/12/26 06:57:47;;;;;;;5.72;4.03;;;2.10;1.00;;;;;;4953888;29;20191;-78
2020/12/26 07:01:02;;;;;;;20.35;4.90;;;2.10;1.00;;;;;;4945635;29;20222;-79
2020/12/26 07:03:31;;;;;;;6.95;4.40;;;2.10;1.00;;;;;;4935930;29;20192;-79
2020/12/26 07:06:36;;;;;;;9.77;4.30;;;2.10;1.00;;;;;;4935735;29;20168;-79
2020/12/26 07:09:04;;;;;;;9.45;4.20;;;2.10;1.00;;;;;;4935972;29;20164;-79
2020/12/26 07:11:43;;;;;;;8.85;4.00;;;2.10;1.00;;;;;;4938400;29;20599;-79
2020/12/26 07:14:09;;;;;;;6.90;3.08;;;2.10;1.00;;;;;;4936037;29;20207;-79
2020/12/26 07:20:03;;;;;;;6.00;3.95;;;2.10;1.00;;;;;;4923848;29;20458;-79
2020/12/26 07:22:33;;;;;;;6.75;4.13;;;2.00;1.00;;;;;;4946189;28;20206;-75
2020/12/26 07:25:08;;;;;;;9.48;4.07;;;2.10;1.00;;;;;;4974086;28;20238;-76
2020/12/26 07:27:41;;;;;;;7.35;3.75;;;2.00;1.00;;;;;;4974407;28;20182;-75
2020/12/26 07:30:11;;;;;;;7.07;4.20;;;2.00;1.00;;;;;;4993549;28;20645;-75
2020/12/26 07:33:00;;;;;;;6.72;3.63;;;2.00;1.00;;;;;;4986001;28;20598;-75
2020/12/26 07:35:33;;;;;;;13.00;4.13;;;1.90;1.00;;;;;;5047379;28;20192;-75
2020/12/26 07:38:16;;;;;;;7.18;3.05;;;2.00;1.00;;;;;;5093641;28;20166;-75
2020/12/26 07:40:46;;;;;;;5.85;3.33;;;1.90;1.00;;;;;;5075012;28;20198;-76
2020/12/26 07:43:16;;;;;;;9.13;3.90;;;2.00;1.00;;;;;;5075732;28;20538;-76
2020/12/26 07:45:46;;;;;;;11.45;4.10;;;2.00;1.00;;;;;;5086897;28;20556;-77
2020/12/26 07:48:21;;;;;;;5.60;3.83;;;2.00;1.00;;;;;;5088743;28;20419;-73
2020/12/26 07:50:48;;;;;;;11.93;4.30;;;2.00;1.00;;;;;;5093565;28;20197;-77
2020/12/26 07:53:15;;;;;;;12.18;4.88;;;;;;;;;;5094922;28;20185;-79
2020/12/26 07:56:02;;;;;;;14.77;5.30;;;2.00;1.00;;;;;;5094626;28;20241;-79
2020/12/26 07:58:33;;;;;;;5.60;3.78;;;2.10;1.00;;;;;;5084051;28;20688;-80
2020/12/26 08:01:55;;;;;;;6.35;3.95;;;2.10;1.00;;;;;;5081935;28;20283;-80
2020/12/26 08:04:22;;;;;;;21.10;3.30;;;2.10;1.00;;;;;;5094661;28;20230;-81
2020/12/26 08:06:49;;;;;;;17.13;5.13;;;2.10;1.00;;;;;;5079073;28;20201;-75
2020/12/26 08:09:21;;;;;;;10.40;3.75;;;2.10;1.00;;;;;;5091924;28;20170;-76
2020/12/26 08:12:06;;;;;;;4.68;3.47;;;2.20;1.00;;;;;;5085912;28;20223;-77
2020/12/26 08:14:33;;;;;;;10.52;3.97;;;2.20;1.00;;;;;;5081393;28;20178;-75
2020/12/26 08:17:03;;;;;;;9.43;3.90;;;2.20;1.00;;;;;;5080494;28;20202;-76
2020/12/26 08:19:29;;;;;;;6.95;3.70;;;2.20;1.00;;;;;;5081360;28;20240;-75
2020/12/26 08:21:58;;;;;;;8.60;3.17;;;2.30;1.00;;;;;;5081796;28;20672;-79
2020/12/26 08:24:33;;;;;;;6.07;4.40;;;2.20;1.00;;;;;;5073332;28;20406;-80
2020/12/26 08:27:33;;;;;;;7.75;4.38;;;2.20;1.00;;;;;;5073476;28;20237;-81
2020/12/26 08:30:30;;;;;;;10.80;4.35;;;2.30;1.00;;;;;;5086919;28;20174;-80
2020/12/26 08:33:43;;;;;;;6.45;4.00;;;2.30;1.00;;;;;;5074766;28;20171;-80
2020/12/26 08:36:37;;;;;;;9.57;3.65;;;2.40;1.00;;;;;;5017235;28;20183;-80
2020/12/26 08:39:17;;;;;;;5.13;3.22;;;2.30;1.00;;;;;;5012128;28;20189;-76
2020/12/26 08:42:32;;;;;;;9.90;3.90;;;2.30;1.00;;;;;;5016839;28;20207;-76
2020/12/26 08:45:26;;;;;;;4.72;2.97;;;2.30;1.00;;;;;;5030990;28;20188;-76
2020/12/26 08:48:24;;;;;;;5.32;3.60;;;2.30;1.00;;;;;;4971630;28;20225;-75
2020/12/26 08:51:03;;;;;;;8.38;3.95;;;2.30;1.00;;;;;;4952950;29;20202;-76
2020/12/26 08:53:34;;;;;;;8.93;3.47;;;2.30;1.00;;;;;;4953003;29;20607;-76
2020/12/26 08:56:09;;;;;;;10.40;4.53;;;2.30;1.00;;;;;;4952984;29;20175;-77
2020/12/26 08:59:03;;;;;;;4.70;3.55;;;2.30;1.00;;;;;;4952364;29;20193;-78
2020/12/26 09:01:29;;;;;;;4.30;3.45;;;2.40;1.00;;;;;;4950814;29;20219;-77
2020/12/26 09:03:57;;;;;;;5.97;4.10;;;2.40;1.00;;;;;;4952832;29;20198;-75
2020/12/26 09:06:42;;;;;;;9.52;4.90;;;2.50;1.00;;;;;;4952928;29;20446;-76
2020/12/26 09:09:33;;;;;;;10.77;3.65;;;2.60;1.00;;;;;;4929807;28;20175;-76
2020/12/26 09:12:44;;;;;;;6.45;3.22;;;2.60;1.00;;;;;;4975298;28;20185;-76
2020/12/26 09:15:15;;;;;;;9.20;4.45;;;2.70;1.00;;;;;;4975342;28;20277;-76
2020/12/26 09:17:51;;;;;;;5.40;3.95;;;2.80;1.00;;;;;;4976524;28;20681;-77
2020/12/26 09:20:21;;;;;;;5.88;3.88;;;2.90;1.00;;;;;;4979778;28;20672;-76
2020/12/26 09:22:51;;;;;;;9.55;4.85;;;3.00;1.00;;;;;;4984602;28;20677;-79
2020/12/26 09:25:33;;;;;;;17.45;4.78;;;3.10;1.00;;;;;;5029173;28;20245;-83
2020/12/26 09:28:03;;;;;;;13.30;5.38;;;3.20;1.00;;;;;;5089058;28;20186;-80
2020/12/26 09:31:23;;;;;;;19.33;5.65;;;3.30;1.00;;;;;;5081286;28;20660;-80
2020/12/26 09:33:52;;;;;;;10.32;5.38;;;3.30;1.00;;;;;;4996854;28;20230;-80
2020/12/26 09:36:23;;;;;;;15.32;5.60;;;3.40;1.00;;;;;;5013387;28;20189;-80
2020/12/26 09:39:05;;;;;;;12.00;5.53;;;3.50;1.00;;;;;;5001512;28;20220;-81
2020/12/26 09:42:03;;;;;;;9.98;5.05;;;3.60;1.00;;;;;;4995526;28;20609;-81
2020/12/26 09:44:33;;;;;;;9.23;4.85;;;3.60;1.00;;;;;;5011645;28;20229;-80
2020/12/26 09:47:04;;;;;;;8.45;4.43;;;3.70;1.00;;;;;;5002174;28;20177;-79
2020/12/26 09:49:29;;;;;;;11.25;6.05;;;3.70;1.00;;;;;;4996856;28;20279;-80
2020/12/26 09:52:03;;;;;;;15.87;5.57;;;3.80;1.00;;;;;;5003569;28;20664;-81
2020/12/26 09:54:29;;;;;;;9.70;5.35;;;3.80;1.00;;;;;;5014527;28;20443;-76
2020/12/26 09:56:55;;;;;;;7.90;4.53;;;4.00;1.00;;;;;;4995586;28;20237;-75
2020/12/26 09:59:20;;;;;;;13.20;5.93;;;4.00;1.00;;;;;;5002385;28;20169;-75
2020/12/26 10:01:51;;;;;;;10.37;5.70;;;4.10;1.00;;;;;;5008991;28;20464;-74
2020/12/26 10:04:21;;;;;;;9.48;5.15;;;4.10;1.00;;;;;;4994732;28;20548;-75
2020/12/26 10:06:51;;;;;;;7.72;5.43;;;4.20;1.00;;;;;;5011389;28;20196;-75
2020/12/26 10:09:21;;;;;;;12.48;6.10;;;4.30;1.00;;;;;;5042522;28;20244;-75
2020/12/26 10:11:51;;;;;;;10.60;5.07;;;4.30;1.00;;;;;;5076716;28;20545;-75
2020/12/26 10:14:21;;;;;;;9.52;5.32;;;4.30;1.00;;;;;;5077047;28;20175;-75
2020/12/26 10:16:47;;;;;;;13.65;4.97;;;4.30;1.00;;;;;;5076318;28;20293;-75
2020/12/26 10:19:21;;;;;;;12.40;5.87;;;;;;;;;;5075828;28;20175;-75
2020/12/26 10:21:53;;;;;;;11.25;5.50;;;4.20;1.00;;;;;;5076993;28;20236;-74
2020/12/26 10:24:19;;;;;;;8.95;5.45;;;;;;;;;;5076038;28;20616;-74
2020/12/26 10:26:46;;;;;;;9.77;4.75;;;;;;;;;;5076021;28;20182;-74
2020/12/26 10:29:15;;;;;;;8.73;4.40;;;;;;;;;;5075971;28;20194;-75
2020/12/26 10:31:45;;;;;;;13.30;5.28;;;4.30;1.00;;;;;;5084334;28;20179;-74
2020/12/26 10:34:11;;;;;;;11.38;5.15;;;;;;;;;;5075688;28;20187;-74
2020/12/26 10:36:44;;;;;;;21.85;4.88;;;4.30;1.00;;;;;;5075733;28;20175;-75
2020/12/26 10:39:10;;;;;;;11.60;4.07;;;;;;;;;;5075650;28;20179;-74
2020/12/26 10:41:36;;;;;;;18.95;5.85;;;4.30;1.00;;;;;;5075970;28;20199;-74
2020/12/26 10:44:01;;;;;;;10.50;5.03;;;4.30;1.00;;;;;;5077375;28;20205;-73
2020/12/26 10:46:28;;;;;;;7.50;4.63;;;4.40;1.00;;;;;;5075494;28;20246;-74
2020/12/26 10:48:54;;;;;;;15.88;6.38;;;4.50;1.00;;;;;;5075332;28;20507;-72
2020/12/26 10:51:19;;;;;;;11.23;5.20;;;4.50;1.00;;;;;;5090066;28;20700;-76
2020/12/26 10:53:51;;;;;;;8.07;4.00;;;4.50;1.00;;;;;;5087528;28;20227;-74
2020/12/26 10:59:39;;;;;;;9.68;4.40;;;4.60;1.00;;;;;;5077898;28;20236;-78
2020/12/26 11:02:51;;;;;;;16.23;5.23;;;4.70;1.00;;;;;;5082665;28;20199;-79
2020/12/26 11:05:27;;;;;;;10.75;5.43;;;4.70;1.00;;;;;;5082139;28;20167;-78
2020/12/26 11:07:57;;;;;;;10.45;4.32;;;4.70;1.00;;;;;;5095110;28;20629;-78
2020/12/26 11:10:27;;;;;;;8.82;4.32;;;4.70;1.00;;;;;;5075093;28;20183;-78
2020/12/26 11:13:32;;;;;;;7.65;4.90;;;4.70;1.00;;;;;;5086444;28;20253;-79
2020/12/26 11:16:33;;;;;;;9.68;4.75;;;4.80;1.00;;;;;;5077369;28;20261;-79
2020/12/26 11:19:16;;;;;;;6.43;4.07;;;4.80;1.00;;;;;;5074932;28;20167;-79
2020/12/26 11:22:03;;;;;;;9.20;4.75;;;4.70;1.00;;;;;;5074784;28;20182;-78
2020/12/26 11:24:57;;;;;;;8.52;4.72;;;4.80;1.00;;;;;;5074790;28;20155;-78
2020/12/26 11:27:22;;;;;;;8.85;4.40;;;4.90;1.00;;;;;;5075085;28;20186;-77
2020/12/26 11:30:03;;;;;;;12.80;5.17;;;4.90;1.00;;;;;;5073770;28;20190;-77
2020/12/26 11:32:30;;;;;;;7.20;4.47;;;5.00;1.00;;;;;;5074918;28;20418;-76
2020/12/26 11:35:06;;;;;;;13.75;5.47;;;5.00;1.00;;;;;;5080731;28;20182;-76
2020/12/26 11:37:32;;;;;;;8.55;4.85;;;5.10;1.00;;;;;;5082725;28;20178;-74
2020/12/26 11:39:58;;;;;;;11.07;4.80;;;;;;;;;;5078107;28;20182;-75
2020/12/26 11:42:27;;;;;;;16.70;4.88;;;5.30;1.00;;;;;;5084218;28;20174;-75
2020/12/26 11:44:57;;;;;;;11.60;5.22;;;5.30;1.00;;;;;;5075953;28;20179;-76
2020/12/26 11:47:23;;;;;;;12.50;5.13;;;5.30;1.00;;;;;;5073412;28;20532;-75
2020/12/26 11:49:51;;;;;;;9.53;5.33;;;5.30;1.00;;;;;;5079031;28;20179;-75
2020/12/26 11:52:17;;;;;;;15.40;5.50;;;5.40;1.00;;;;;;5073485;28;20206;-75
2020/12/26 11:54:45;;;;;;;7.97;4.70;;;5.40;1.00;;;;;;5073302;28;20198;-75
2020/12/26 11:57:15;;;;;;;11.23;5.37;;;5.30;1.00;;;;;;5073866;28;20727;-79
2020/12/26 11:59:45;;;;;;;9.38;4.25;;;5.40;1.00;;;;;;5072748;28;20422;-79
2020/12/26 12:02:15;;;;;;;5.25;3.80;;;5.40;1.00;;;;;;5084701;28;20202;-78
2020/12/26 12:08:21;;;;;;;13.70;4.47;;;5.40;1.00;;;;;;5074153;28;20408;-78
2020/12/26 12:10:51;;;;;;;10.63;4.88;;;5.50;1.00;;;;;;5079886;28;20409;-80
2020/12/26 12:16:48;;;;;;;7.90;4.13;;;5.60;1.00;;;;;;5081273;28;20190;-80
2020/12/26 12:19:27;;;;;;;11.90;5.17;;;5.70;1.00;;;;;;5073526;28;20723;-80
2020/12/26 12:22:03;;;;;;;9.30;4.50;;;5.60;1.00;;;;;;5073241;28;20854;-80
2020/12/26 12:24:39;;;;;;;11.80;4.27;;;5.60;1.00;;;;;;5073474;28;20394;-80
2020/12/26 12:27:21;;;;;;;7.53;4.83;;;5.80;1.00;;;;;;5076572;28;20553;-79
2020/12/26 12:29:47;;;;;;;7.43;4.63;;;;;;;;;;5092386;28;20818;-79
2020/12/26 12:32:45;;;;;;;11.17;4.50;;;5.90;1.00;;;;;;5073610;28;20409;-80
2020/12/26 12:35:45;;;;;;;8.27;4.18;;;5.80;1.00;;;;;;5082506;28;20467;-80
2020/12/26 12:38:27;;;;;;;8.57;4.73;;;5.90;1.00;;;;;;5074829;28;20190;-80
2020/12/26 12:41:21;;;;;;;6.57;3.50;;;5.90;1.00;;;;;;5072929;28;20448;-80
2020/12/26 12:44:15;;;;;;;9.43;4.60;;;5.80;1.00;;;;;;5073492;28;20396;-80
2020/12/26 12:46:52;;;;;;;7.13;4.30;;;;;;;;;;5073162;28;20175;-78
2020/12/26 12:50:03;;;;;;;7.60;3.90;;;5.80;1.00;;;;;;5072735;28;20400;-81
2020/12/26 12:52:39;;;;;;;10.20;4.60;;;5.80;1.00;;;;;;5072921;28;20429;-80
2020/12/26 12:55:05;;;;;;;12.23;4.87;;;5.90;1.00;;;;;;5073009;28;20550;-80
2020/12/26 12:57:51;;;;;;;9.27;4.20;;;5.80;1.00;;;;;;5073007;28;20472;-80
2020/12/26 13:00:21;;;;;;;8.60;4.77;;;5.90;1.00;;;;;;5077295;28;20420;-80
2020/12/26 13:02:47;;;;;;;8.18;4.47;;;5.90;1.00;;;;;;5072811;28;20814;-80
2020/12/26 13:05:21;;;;;;;8.60;4.67;;;5.80;1.00;;;;;;5077074;28;20245;-80
2020/12/26 13:07:51;;;;;;;7.37;3.80;;;5.70;1.00;;;;;;5081797;28;20495;-80
2020/12/26 13:10:22;;;;;;;7.60;4.50;;;;;;;;;;5092591;28;20431;-80
2020/12/26 13:16:30;;;;;;;10.50;3.97;;;5.60;1.00;;;;;;5077560;28;20702;-79
2020/12/26 13:18:57;;;;;;;7.10;4.10;;;5.60;1.00;;;;;;5084861;28;20954;-80
2020/12/26 13:21:59;;;;;;;7.40;3.60;;;5.50;1.00;;;;;;5071180;28;20210;-79
2020/12/26 13:24:33;;;;;;;8.47;3.80;;;5.40;1.00;;;;;;5073655;28;20706;-78
2020/12/26 13:27:03;;;;;;;12.83;3.30;;;5.40;1.00;;;;;;5085032;28;20750;-79
2020/12/26 13:29:45;;;;;;;9.20;3.70;;;5.40;1.00;;;;;;5079709;28;20430;-79
2020/12/26 13:32:15;;;;;;;8.38;4.32;;;5.30;1.00;;;;;;5072278;28;20425;-79
2020/12/26 13:34:52;;;;;;;5.45;3.40;;;5.30;1.00;;;;;;5072499;28;20183;-81
2020/12/26 13:37:18;;;;;;;9.93;4.13;;;5.30;1.00;;;;;;5073009;28;20220;-79
2020/12/26 13:40:33;;;;;;;3.80;2.80;;;5.30;1.00;;;;;;5072616;28;20558;-79
2020/12/26 13:42:59;;;;;;;6.93;4.28;;;5.20;1.00;;;;;;5073058;28;20205;-74
2020/12/26 13:45:27;;;;;;;6.90;4.43;;;5.20;1.00;;;;;;5072104;28;20163;-74
2020/12/26 13:47:57;;;;;;;9.88;4.20;;;5.20;1.00;;;;;;5089398;28;20907;-75
2020/12/26 13:50:23;;;;;;;8.38;3.72;;;5.30;1.00;;;;;;5084933;28;20789;-75
2020/12/26 13:52:51;;;;;;;6.40;4.20;;;5.30;1.00;;;;;;5085888;28;20206;-74
2020/12/26 13:55:17;;;;;;;5.43;3.63;;;5.30;1.00;;;;;;5077659;28;20175;-74
2020/12/26 13:57:45;;;;;;;10.20;4.07;;;5.20;1.00;;;;;;5072413;28;20409;-74
2020/12/26 14:00:39;;;;;;;11.20;3.75;;;5.20;1.00;;;;;;5072315;28;20155;-79
2020/12/26 14:03:27;;;;;;;4.70;3.45;;;5.20;1.00;;;;;;5072257;28;20178;-79
2020/12/26 14:06:41;;;;;;;13.32;2.13;;;5.20;1.00;;;;;;5072470;28;20190;-79
2020/12/26 14:09:10;;;;;;;8.65;4.47;;;5.20;1.00;;;;;;5039756;28;20234;-78
2020/12/26 14:12:21;;;;;;;5.75;4.05;;;5.20;1.00;;;;;;5051922;28;20212;-78
2020/12/26 14:14:46;;;;;;;6.22;3.53;;;5.10;1.00;;;;;;5053503;28;20192;-79
2020/12/26 14:17:39;;;;;;;8.83;4.40;;;5.10;1.00;;;;;;5053637;28;20191;-79
2020/12/26 14:20:09;;;;;;;12.52;4.57;;;5.10;1.00;;;;;;5038384;28;20595;-80
2020/12/26 14:26:33;;;;;;;7.72;4.00;;;5.10;1.00;;;;;;5033530;28;20253;-79
2020/12/26 14:28:58;;;;;;;6.35;2.92;;;5.00;1.00;;;;;;5034172;28;20171;-74
2020/12/26 14:31:24;;;;;;;8.83;4.10;;;5.00;1.00;;;;;;5039354;28;20172;-74